sensor_id;sensor_type;location;lat;lon;timestamp;temperature;humidity
8945;DHT22;4507;40.232;29.132;2023-04-09T00:00:11;10.90;99.90
8945;DHT22;4507;40.232;29.132;2023-04-09T00:02:40;10.90;99.90
8945;DHT22;4507;40.232;29.132;2023-04-09T00:05:10;10.90;99.90
8945;DHT22;4507;40.232;29.132;2023-04-09T00:07:40;10.90;99.90
8945;DHT22;4507;40.232;29.132;2023-04-09T00:10:11;10.90;99.90
8945;DHT22;4507;40.232;29.132;2023-04-09T00:12:39;10.90;99.90
8945;DHT22;4507;40.232;29.132;2023-04-09T00:15:09;10.90;99.90
8945;DHT22;4507;40.232;29.132;2023-04-09T00:17:54;10.90;99.90
8945;DHT22;4507;40.232;29.132;2023-04-09T00:20:25;10.90;99.90
8945;DHT22;4507;40.232;29.132;2023-04-09T00:22:54;10.80;99.90
8945;DHT22;4507;40.232;29.132;2023-04-09T00:25:23;10.80;99.90
8945;DHT22;4507;40.232;29.132;2023-04-09T00:27:52;10.80;99.90
8945;DHT22;4507;40.232;29.132;2023-04-09T00:30:21;10.80;99.90
8945;DHT22;4507;40.232;29.132;2023-04-09T00:32:50;10.70;99.90
8945;DHT22;4507;40.232;29.132;2023-04-09T00:35:19;10.70;99.90
8945;DHT22;4507;40.232;29.132;2023-04-09T00:37:49;10.70;99.90
8945;DHT22;4507;40.232;29.132;2023-04-09T00:40:19;10.70;99.90
8945;DHT22;4507;40.232;29.132;2023-04-09T00:42:47;10.70;99.90
8945;DHT22;4507;40.232;29.132;2023-04-09T00:45:17;10.60;99.90
8945;DHT22;4507;40.232;29.132;2023-04-09T00:47:46;10.60;99.90
8945;DHT22;4507;40.232;29.132;2023-04-09T00:50:15;10.60;99.90
8945;DHT22;4507;40.232;29.132;2023-04-09T00:52:44;10.60;99.90
8945;DHT22;4507;40.232;29.132;2023-04-09T00:55:16;10.50;99.90
8945;DHT22;4507;40.232;29.132;2023-04-09T00:57:46;10.50;99.90
8945;DHT22;4507;40.232;29.132;2023-04-09T01:00:16;10.40;99.90
8945;DHT22;4507;40.232;29.132;2023-04-09T01:02:46;10.30;99.90
8945;DHT22;4507;40.232;29.132;2023-04-09T01:05:15;10.30;99.90
8945;DHT22;4507;40.232;29.132;2023-04-09T01:07:54;10.30;99.90
8945;DHT22;4507;40.232;29.132;2023-04-09T01:10:34;10.20;99.90
8945;DHT22;4507;40.232;29.132;2023-04-09T01:13:09;10.20;99.90
8945;DHT22;4507;40.232;29.132;2023-04-09T01:15:45;10.10;99.90
8945;DHT22;4507;40.232;29.132;2023-04-09T01:18:21;10.10;99.90
8945;DHT22;4507;40.232;29.132;2023-04-09T01:20:57;10.10;99.90
8945;DHT22;4507;40.232;29.132;2023-04-09T01:23:36;10.00;99.90
8945;DHT22;4507;40.232;29.132;2023-04-09T01:26:16;10.00;99.90
8945;DHT22;4507;40.232;29.132;2023-04-09T01:28:55;10.00;99.90
8945;DHT22;4507;40.232;29.132;2023-04-09T01:31:28;10.00;99.90
8945;DHT22;4507;40.232;29.132;2023-04-09T01:33:59;10.00;99.90
8945;DHT22;4507;40.232;29.132;2023-04-09T01:36:29;9.90;99.90
8945;DHT22;4507;40.232;29.132;2023-04-09T01:39:00;9.90;99.90
8945;DHT22;4507;40.232;29.132;2023-04-09T01:41:31;9.90;99.90
8945;DHT22;4507;40.232;29.132;2023-04-09T01:44:03;9.90;99.90
8945;DHT22;4507;40.232;29.132;2023-04-09T01:46:53;9.90;99.90
8945;DHT22;4507;40.232;29.132;2023-04-09T01:49:23;9.90;99.90
8945;DHT22;4507;40.232;29.132;2023-04-09T01:52:10;9.90;99.90
8945;DHT22;4507;40.232;29.132;2023-04-09T01:54:41;9.90;99.90
8945;DHT22;4507;40.232;29.132;2023-04-09T01:57:10;9.90;99.90
8945;DHT22;4507;40.232;29.132;2023-04-09T01:59:41;9.90;99.90
8945;DHT22;4507;40.232;29.132;2023-04-09T02:02:17;9.90;99.90
8945;DHT22;4507;40.232;29.132;2023-04-09T02:04:50;9.90;99.90
8945;DHT22;4507;40.232;29.132;2023-04-09T02:07:28;9.80;99.90
8945;DHT22;4507;40.232;29.132;2023-04-09T02:10:05;9.80;99.90
8945;DHT22;4507;40.232;29.132;2023-04-09T02:12:36;9.80;99.90
8945;DHT22;4507;40.232;29.132;2023-04-09T02:15:25;9.80;99.90
8945;DHT22;4507;40.232;29.132;2023-04-09T02:17:56;9.80;99.90
8945;DHT22;4507;40.232;29.132;2023-04-09T02:20:26;9.80;99.90
8945;DHT22;4507;40.232;29.132;2023-04-09T02:22:55;9.70;99.90
8945;DHT22;4507;40.232;29.132;2023-04-09T02:25:25;9.70;99.90
8945;DHT22;4507;40.232;29.132;2023-04-09T02:27:55;9.70;99.90
8945;DHT22;4507;40.232;29.132;2023-04-09T02:30:26;9.70;99.90
8945;DHT22;4507;40.232;29.132;2023-04-09T02:32:55;9.70;99.90
8945;DHT22;4507;40.232;29.132;2023-04-09T02:35:24;9.60;99.90
8945;DHT22;4507;40.232;29.132;2023-04-09T02:37:53;9.60;99.90
8945;DHT22;4507;40.232;29.132;2023-04-09T02:40:22;9.60;99.90
8945;DHT22;4507;40.232;29.132;2023-04-09T02:42:51;9.60;99.90
8945;DHT22;4507;40.232;29.132;2023-04-09T02:45:20;9.50;99.90
8945;DHT22;4507;40.232;29.132;2023-04-09T02:47:51;9.50;99.90
8945;DHT22;4507;40.232;29.132;2023-04-09T02:50:20;9.50;99.90
8945;DHT22;4507;40.232;29.132;2023-04-09T02:52:52;9.50;99.90
8945;DHT22;4507;40.232;29.132;2023-04-09T02:55:21;9.50;99.90
8945;DHT22;4507;40.232;29.132;2023-04-09T02:57:50;9.40;99.90
8945;DHT22;4507;40.232;29.132;2023-04-09T03:00:19;9.40;99.90
8945;DHT22;4507;40.232;29.132;2023-04-09T03:02:50;9.40;99.90
8945;DHT22;4507;40.232;29.132;2023-04-09T03:05:19;9.40;99.90
8945;DHT22;4507;40.232;29.132;2023-04-09T03:07:49;9.30;99.90
8945;DHT22;4507;40.232;29.132;2023-04-09T03:10:17;9.30;99.90
8945;DHT22;4507;40.232;29.132;2023-04-09T03:13:05;9.30;99.90
8945;DHT22;4507;40.232;29.132;2023-04-09T03:15:34;9.20;99.90
8945;DHT22;4507;40.232;29.132;2023-04-09T03:18:04;9.20;99.90
8945;DHT22;4507;40.232;29.132;2023-04-09T03:20:36;9.20;99.90
8945;DHT22;4507;40.232;29.132;2023-04-09T03:23:09;9.10;99.90
8945;DHT22;4507;40.232;29.132;2023-04-09T03:26:01;9.10;99.90
8945;DHT22;4507;40.232;29.132;2023-04-09T03:28:34;9.00;99.90
8945;DHT22;4507;40.232;29.132;2023-04-09T03:31:03;9.00;99.90
8945;DHT22;4507;40.232;29.132;2023-04-09T03:33:37;9.00;99.90
8945;DHT22;4507;40.232;29.132;2023-04-09T03:36:07;9.00;99.90
8945;DHT22;4507;40.232;29.132;2023-04-09T03:39:11;9.00;99.90
8945;DHT22;4507;40.232;29.132;2023-04-09T03:41:43;9.00;99.90
8945;DHT22;4507;40.232;29.132;2023-04-09T03:44:15;9.00;99.90
8945;DHT22;4507;40.232;29.132;2023-04-09T03:46:56;9.00;99.90
8945;DHT22;4507;40.232;29.132;2023-04-09T03:49:28;9.00;99.90
8945;DHT22;4507;40.232;29.132;2023-04-09T03:52:09;9.10;99.90
8945;DHT22;4507;40.232;29.132;2023-04-09T03:54:44;9.10;99.90
8945;DHT22;4507;40.232;29.132;2023-04-09T03:57:18;9.20;99.90
8945;DHT22;4507;40.232;29.132;2023-04-09T03:59:50;9.20;99.90
8945;DHT22;4507;40.232;29.132;2023-04-09T04:02:21;9.20;99.90
8945;DHT22;4507;40.232;29.132;2023-04-09T04:05:02;9.30;99.90
8945;DHT22;4507;40.232;29.132;2023-04-09T04:07:37;9.30;99.90
8945;DHT22;4507;40.232;29.132;2023-04-09T04:10:11;9.40;99.90
8945;DHT22;4507;40.232;29.132;2023-04-09T04:12:44;9.40;99.90
8945;DHT22;4507;40.232;29.132;2023-04-09T04:15:20;9.40;99.90
8945;DHT22;4507;40.232;29.132;2023-04-09T04:17:53;9.40;99.90
8945;DHT22;4507;40.232;29.132;2023-04-09T04:20:42;9.50;99.90
8945;DHT22;4507;40.232;29.132;2023-04-09T04:23:13;9.50;99.90
8945;DHT22;4507;40.232;29.132;2023-04-09T04:25:55;9.50;99.90
8945;DHT22;4507;40.232;29.132;2023-04-09T04:28:30;9.50;99.90
8945;DHT22;4507;40.232;29.132;2023-04-09T04:30:59;9.50;99.90
8945;DHT22;4507;40.232;29.132;2023-04-09T04:33:31;9.60;99.90
8945;DHT22;4507;40.232;29.132;2023-04-09T04:36:05;9.60;99.90
8945;DHT22;4507;40.232;29.132;2023-04-09T04:38:39;9.60;99.90
8945;DHT22;4507;40.232;29.132;2023-04-09T04:41:16;9.60;99.90
8945;DHT22;4507;40.232;29.132;2023-04-09T04:43:52;9.60;99.90
8945;DHT22;4507;40.232;29.132;2023-04-09T04:46:23;9.70;99.90
8945;DHT22;4507;40.232;29.132;2023-04-09T04:48:52;9.70;99.90
8945;DHT22;4507;40.232;29.132;2023-04-09T04:51:23;9.80;99.90
8945;DHT22;4507;40.232;29.132;2023-04-09T04:54:04;9.80;99.90
8945;DHT22;4507;40.232;29.132;2023-04-09T04:56:33;9.90;99.90
8945;DHT22;4507;40.232;29.132;2023-04-09T04:59:10;9.90;99.90
8945;DHT22;4507;40.232;29.132;2023-04-09T05:02:08;10.00;99.90
8945;DHT22;4507;40.232;29.132;2023-04-09T05:05:01;10.10;99.90
8945;DHT22;4507;40.232;29.132;2023-04-09T05:07:38;10.20;99.90
8945;DHT22;4507;40.232;29.132;2023-04-09T05:10:08;10.30;99.90
8945;DHT22;4507;40.232;29.132;2023-04-09T05:12:41;10.40;99.90
8945;DHT22;4507;40.232;29.132;2023-04-09T05:15:12;10.50;99.90
8945;DHT22;4507;40.232;29.132;2023-04-09T05:17:42;10.60;99.90
8945;DHT22;4507;40.232;29.132;2023-04-09T05:20:13;10.70;99.90
8945;DHT22;4507;40.232;29.132;2023-04-09T05:22:51;10.80;99.90
8945;DHT22;4507;40.232;29.132;2023-04-09T05:25:27;10.90;99.90
8945;DHT22;4507;40.232;29.132;2023-04-09T05:27:56;11.00;99.90
8945;DHT22;4507;40.232;29.132;2023-04-09T05:30:25;11.10;99.90
8945;DHT22;4507;40.232;29.132;2023-04-09T05:32:57;11.20;99.90
8945;DHT22;4507;40.232;29.132;2023-04-09T05:35:27;11.30;99.90
8945;DHT22;4507;40.232;29.132;2023-04-09T05:37:59;11.30;99.90
8945;DHT22;4507;40.232;29.132;2023-04-09T05:40:28;11.40;99.90
8945;DHT22;4507;40.232;29.132;2023-04-09T05:42:57;11.50;99.90
8945;DHT22;4507;40.232;29.132;2023-04-09T05:45:36;11.50;99.90
8945;DHT22;4507;40.232;29.132;2023-04-09T05:48:05;11.60;99.90
8945;DHT22;4507;40.232;29.132;2023-04-09T05:50:34;11.70;99.90
8945;DHT22;4507;40.232;29.132;2023-04-09T05:53:22;11.80;99.90
8945;DHT22;4507;40.232;29.132;2023-04-09T05:55:51;11.90;99.90
8945;DHT22;4507;40.232;29.132;2023-04-09T05:58:24;12.00;99.90
8945;DHT22;4507;40.232;29.132;2023-04-09T06:00:56;12.10;99.90
8945;DHT22;4507;40.232;29.132;2023-04-09T06:03:25;12.20;99.90
8945;DHT22;4507;40.232;29.132;2023-04-09T06:05:55;12.40;99.90
8945;DHT22;4507;40.232;29.132;2023-04-09T06:08:25;12.50;99.90
8945;DHT22;4507;40.232;29.132;2023-04-09T06:10:54;12.50;99.90
8945;DHT22;4507;40.232;29.132;2023-04-09T06:13:23;12.60;99.90
8945;DHT22;4507;40.232;29.132;2023-04-09T06:15:52;12.70;99.90
8945;DHT22;4507;40.232;29.132;2023-04-09T06:18:21;12.80;99.90
8945;DHT22;4507;40.232;29.132;2023-04-09T06:21:02;12.90;99.90
8945;DHT22;4507;40.232;29.132;2023-04-09T06:23:37;12.90;99.90
8945;DHT22;4507;40.232;29.132;2023-04-09T06:26:06;13.00;99.90
8945;DHT22;4507;40.232;29.132;2023-04-09T06:28:35;13.10;99.90
8945;DHT22;4507;40.232;29.132;2023-04-09T06:31:04;13.20;99.90
8945;DHT22;4507;40.232;29.132;2023-04-09T06:33:35;13.20;99.90
8945;DHT22;4507;40.232;29.132;2023-04-09T06:36:05;13.30;99.90
8945;DHT22;4507;40.232;29.132;2023-04-09T06:38:37;13.40;99.90
8945;DHT22;4507;40.232;29.132;2023-04-09T06:41:08;13.40;99.90
8945;DHT22;4507;40.232;29.132;2023-04-09T06:43:45;13.50;99.90
8945;DHT22;4507;40.232;29.132;2023-04-09T06:46:19;13.60;99.90
8945;DHT22;4507;40.232;29.132;2023-04-09T06:48:50;13.70;99.90
8945;DHT22;4507;40.232;29.132;2023-04-09T06:51:19;13.90;99.90
8945;DHT22;4507;40.232;29.132;2023-04-09T06:53:51;14.10;99.90
8945;DHT22;4507;40.232;29.132;2023-04-09T06:56:24;14.20;99.90
8945;DHT22;4507;40.232;29.132;2023-04-09T06:59:00;14.20;99.90
8945;DHT22;4507;40.232;29.132;2023-04-09T07:01:34;14.20;99.90
8945;DHT22;4507;40.232;29.132;2023-04-09T07:04:05;14.20;99.90
8945;DHT22;4507;40.232;29.132;2023-04-09T07:06:34;14.20;99.90
8945;DHT22;4507;40.232;29.132;2023-04-09T07:09:05;14.20;99.90
8945;DHT22;4507;40.232;29.132;2023-04-09T07:11:34;14.30;99.90
8945;DHT22;4507;40.232;29.132;2023-04-09T07:14:03;14.30;99.90
8945;DHT22;4507;40.232;29.132;2023-04-09T07:16:32;14.40;99.90
8945;DHT22;4507;40.232;29.132;2023-04-09T07:19:19;14.40;99.30
8945;DHT22;4507;40.232;29.132;2023-04-09T07:21:48;14.40;99.50
8945;DHT22;4507;40.232;29.132;2023-04-09T07:24:19;14.50;99.90
8945;DHT22;4507;40.232;29.132;2023-04-09T07:26:48;14.60;99.90
8945;DHT22;4507;40.232;29.132;2023-04-09T07:29:18;14.80;99.90
8945;DHT22;4507;40.232;29.132;2023-04-09T07:31:48;15.00;99.90
8945;DHT22;4507;40.232;29.132;2023-04-09T07:34:23;15.10;99.70
8945;DHT22;4507;40.232;29.132;2023-04-09T07:36:52;15.30;99.20
8945;DHT22;4507;40.232;29.132;2023-04-09T07:39:23;15.50;99.30
8945;DHT22;4507;40.232;29.132;2023-04-09T07:41:53;15.70;99.60
8945;DHT22;4507;40.232;29.132;2023-04-09T07:44:22;15.90;99.60
8945;DHT22;4507;40.232;29.132;2023-04-09T07:46:51;16.10;99.40
8945;DHT22;4507;40.232;29.132;2023-04-09T07:49:20;16.40;98.10
8945;DHT22;4507;40.232;29.132;2023-04-09T07:51:50;16.70;96.60
8945;DHT22;4507;40.232;29.132;2023-04-09T07:54:20;16.90;95.60
8945;DHT22;4507;40.232;29.132;2023-04-09T07:56:54;17.00;95.50
8945;DHT22;4507;40.232;29.132;2023-04-09T07:59:23;17.20;94.90
8945;DHT22;4507;40.232;29.132;2023-04-09T08:01:52;17.40;94.20
8945;DHT22;4507;40.232;29.132;2023-04-09T08:04:22;17.40;92.40
8945;DHT22;4507;40.232;29.132;2023-04-09T08:06:51;17.50;91.20
8945;DHT22;4507;40.232;29.132;2023-04-09T08:09:20;17.40;90.50
8945;DHT22;4507;40.232;29.132;2023-04-09T08:11:49;17.30;90.70
8945;DHT22;4507;40.232;29.132;2023-04-09T08:14:19;17.10;91.50
8945;DHT22;4507;40.232;29.132;2023-04-09T08:16:50;17.10;92.10
8945;DHT22;4507;40.232;29.132;2023-04-09T08:19:19;17.10;91.90
8945;DHT22;4507;40.232;29.132;2023-04-09T08:21:48;17.20;91.40
8945;DHT22;4507;40.232;29.132;2023-04-09T08:24:17;17.30;90.70
8945;DHT22;4507;40.232;29.132;2023-04-09T08:26:46;17.40;90.20
8945;DHT22;4507;40.232;29.132;2023-04-09T08:29:15;17.50;90.00
8945;DHT22;4507;40.232;29.132;2023-04-09T08:31:45;17.50;88.80
8945;DHT22;4507;40.232;29.132;2023-04-09T08:34:15;17.50;86.60
8945;DHT22;4507;40.232;29.132;2023-04-09T08:36:47;17.40;85.70
8945;DHT22;4507;40.232;29.132;2023-04-09T08:39:17;17.40;85.90
8945;DHT22;4507;40.232;29.132;2023-04-09T08:41:47;17.40;85.50
8945;DHT22;4507;40.232;29.132;2023-04-09T08:44:17;17.40;84.30
8945;DHT22;4507;40.232;29.132;2023-04-09T08:46:51;17.30;83.80
8945;DHT22;4507;40.232;29.132;2023-04-09T08:49:20;17.20;84.60
8945;DHT22;4507;40.232;29.132;2023-04-09T08:51:49;17.20;85.60
8945;DHT22;4507;40.232;29.132;2023-04-09T08:54:18;17.20;86.10
8945;DHT22;4507;40.232;29.132;2023-04-09T08:56:47;17.30;86.80
8945;DHT22;4507;40.232;29.132;2023-04-09T08:59:34;17.40;86.30
8945;DHT22;4507;40.232;29.132;2023-04-09T09:02:09;17.50;85.80
8945;DHT22;4507;40.232;29.132;2023-04-09T09:04:45;17.60;85.00
8945;DHT22;4507;40.232;29.132;2023-04-09T09:07:15;17.70;84.80
8945;DHT22;4507;40.232;29.132;2023-04-09T09:09:52;17.70;84.80
8945;DHT22;4507;40.232;29.132;2023-04-09T09:12:36;17.70;84.40
8945;DHT22;4507;40.232;29.132;2023-04-09T09:15:24;17.90;84.10
8945;DHT22;4507;40.232;29.132;2023-04-09T09:17:56;18.00;83.30
8945;DHT22;4507;40.232;29.132;2023-04-09T09:20:26;18.00;82.70
8945;DHT22;4507;40.232;29.132;2023-04-09T09:22:55;18.10;83.40
8945;DHT22;4507;40.232;29.132;2023-04-09T09:25:24;18.20;83.20
8945;DHT22;4507;40.232;29.132;2023-04-09T09:27:53;18.20;82.50
8945;DHT22;4507;40.232;29.132;2023-04-09T09:30:24;18.30;82.00
8945;DHT22;4507;40.232;29.132;2023-04-09T09:33:02;18.30;80.60
8945;DHT22;4507;40.232;29.132;2023-04-09T09:35:46;18.40;80.20
8945;DHT22;4507;40.232;29.132;2023-04-09T09:38:16;18.30;80.00
8945;DHT22;4507;40.232;29.132;2023-04-09T09:40:46;18.40;80.50
8945;DHT22;4507;40.232;29.132;2023-04-09T09:43:15;18.30;80.10
8945;DHT22;4507;40.232;29.132;2023-04-09T09:45:46;18.40;80.70
8945;DHT22;4507;40.232;29.132;2023-04-09T09:48:16;18.40;80.70
8945;DHT22;4507;40.232;29.132;2023-04-09T09:50:47;18.50;80.30
8945;DHT22;4507;40.232;29.132;2023-04-09T09:53:16;18.50;81.30
8945;DHT22;4507;40.232;29.132;2023-04-09T09:55:48;18.70;81.40
8945;DHT22;4507;40.232;29.132;2023-04-09T09:58:26;18.90;80.60
8945;DHT22;4507;40.232;29.132;2023-04-09T10:00:56;19.00;80.00
8945;DHT22;4507;40.232;29.132;2023-04-09T10:03:28;19.00;79.10
8945;DHT22;4507;40.232;29.132;2023-04-09T10:06:00;19.10;80.00
8945;DHT22;4507;40.232;29.132;2023-04-09T10:08:30;19.30;80.10
8945;DHT22;4507;40.232;29.132;2023-04-09T10:11:01;19.50;79.40
8945;DHT22;4507;40.232;29.132;2023-04-09T10:13:34;19.60;79.70
8945;DHT22;4507;40.232;29.132;2023-04-09T10:16:04;19.80;78.70
8945;DHT22;4507;40.232;29.132;2023-04-09T10:18:35;19.90;77.50
8945;DHT22;4507;40.232;29.132;2023-04-09T10:21:30;20.00;76.40
8945;DHT22;4507;40.232;29.132;2023-04-09T10:24:01;19.90;75.10
8945;DHT22;4507;40.232;29.132;2023-04-09T10:26:33;19.80;75.00
8945;DHT22;4507;40.232;29.132;2023-04-09T10:29:04;19.90;75.70
8945;DHT22;4507;40.232;29.132;2023-04-09T10:31:51;19.90;74.70
8945;DHT22;4507;40.232;29.132;2023-04-09T10:34:23;20.00;74.20
8945;DHT22;4507;40.232;29.132;2023-04-09T10:36:56;20.00;73.90
8945;DHT22;4507;40.232;29.132;2023-04-09T10:39:26;20.10;71.80
8945;DHT22;4507;40.232;29.132;2023-04-09T10:41:57;19.80;70.60
8945;DHT22;4507;40.232;29.132;2023-04-09T10:44:28;19.50;70.90
8945;DHT22;4507;40.232;29.132;2023-04-09T10:46:58;19.30;71.50
8945;DHT22;4507;40.232;29.132;2023-04-09T10:49:35;19.10;71.90
8945;DHT22;4507;40.232;29.132;2023-04-09T10:52:10;19.00;72.90
8945;DHT22;4507;40.232;29.132;2023-04-09T10:54:44;18.90;73.70
8945;DHT22;4507;40.232;29.132;2023-04-09T10:57:18;18.90;73.90
8945;DHT22;4507;40.232;29.132;2023-04-09T10:59:49;18.90;74.30
8945;DHT22;4507;40.232;29.132;2023-04-09T11:05:32;18.90;76.20
8945;DHT22;4507;40.232;29.132;2023-04-09T11:08:06;19.00;75.40
8945;DHT22;4507;40.232;29.132;2023-04-09T11:10:36;19.00;74.90
8945;DHT22;4507;40.232;29.132;2023-04-09T11:13:06;18.90;75.40
8945;DHT22;4507;40.232;29.132;2023-04-09T11:15:35;19.00;76.70
8945;DHT22;4507;40.232;29.132;2023-04-09T11:18:04;19.10;76.70
8945;DHT22;4507;40.232;29.132;2023-04-09T11:20:56;19.10;75.70
8945;DHT22;4507;40.232;29.132;2023-04-09T11:23:26;19.20;75.30
8945;DHT22;4507;40.232;29.132;2023-04-09T11:25:56;19.30;74.80
8945;DHT22;4507;40.232;29.132;2023-04-09T11:28:25;19.40;74.20
8945;DHT22;4507;40.232;29.132;2023-04-09T11:30:54;19.40;74.90
8945;DHT22;4507;40.232;29.132;2023-04-09T11:33:30;19.50;77.60
8945;DHT22;4507;40.232;29.132;2023-04-09T11:36:04;19.80;78.70
8945;DHT22;4507;40.232;29.132;2023-04-09T11:38:35;20.20;77.20
8945;DHT22;4507;40.232;29.132;2023-04-09T11:41:04;20.50;75.90
8945;DHT22;4507;40.232;29.132;2023-04-09T11:43:35;20.70;73.10
8945;DHT22;4507;40.232;29.132;2023-04-09T11:46:04;20.70;73.00
8945;DHT22;4507;40.232;29.132;2023-04-09T11:48:34;20.80;73.60
8945;DHT22;4507;40.232;29.132;2023-04-09T11:51:05;21.10;73.20
8945;DHT22;4507;40.232;29.132;2023-04-09T11:53:36;21.30;71.50
8945;DHT22;4507;40.232;29.132;2023-04-09T11:56:06;21.30;69.70
8945;DHT22;4507;40.232;29.132;2023-04-09T11:58:35;21.30;68.60
8945;DHT22;4507;40.232;29.132;2023-04-09T12:01:04;21.20;68.60
8945;DHT22;4507;40.232;29.132;2023-04-09T12:03:33;21.30;69.50
8945;DHT22;4507;40.232;29.132;2023-04-09T12:06:06;21.40;68.90
8945;DHT22;4507;40.232;29.132;2023-04-09T12:08:35;21.50;67.60
8945;DHT22;4507;40.232;29.132;2023-04-09T12:11:08;21.50;67.70
8945;DHT22;4507;40.232;29.132;2023-04-09T12:13:38;21.50;68.00
8945;DHT22;4507;40.232;29.132;2023-04-09T12:16:10;21.50;67.70
8945;DHT22;4507;40.232;29.132;2023-04-09T12:18:40;21.50;67.20
8945;DHT22;4507;40.232;29.132;2023-04-09T12:21:10;21.60;66.70
8945;DHT22;4507;40.232;29.132;2023-04-09T12:23:39;21.60;65.70
8945;DHT22;4507;40.232;29.132;2023-04-09T12:26:08;21.60;65.40
8945;DHT22;4507;40.232;29.132;2023-04-09T12:28:37;21.50;65.30
8945;DHT22;4507;40.232;29.132;2023-04-09T12:31:08;21.30;64.90
8945;DHT22;4507;40.232;29.132;2023-04-09T12:33:38;21.10;64.90
8945;DHT22;4507;40.232;29.132;2023-04-09T12:36:07;20.90;66.00
8945;DHT22;4507;40.232;29.132;2023-04-09T12:38:38;20.90;67.00
8945;DHT22;4507;40.232;29.132;2023-04-09T12:41:07;20.90;67.40
8945;DHT22;4507;40.232;29.132;2023-04-09T12:43:36;20.90;67.20
8945;DHT22;4507;40.232;29.132;2023-04-09T12:46:06;20.90;67.10
8945;DHT22;4507;40.232;29.132;2023-04-09T12:48:35;21.00;67.30
8945;DHT22;4507;40.232;29.132;2023-04-09T12:51:04;21.00;67.30
8945;DHT22;4507;40.232;29.132;2023-04-09T12:53:33;21.00;67.30
8945;DHT22;4507;40.232;29.132;2023-04-09T12:56:05;21.10;67.50
8945;DHT22;4507;40.232;29.132;2023-04-09T12:58:34;21.10;67.00
8945;DHT22;4507;40.232;29.132;2023-04-09T13:01:04;21.10;66.90
8945;DHT22;4507;40.232;29.132;2023-04-09T13:03:33;21.10;66.60
8945;DHT22;4507;40.232;29.132;2023-04-09T13:06:03;21.00;65.90
8945;DHT22;4507;40.232;29.132;2023-04-09T13:08:32;20.90;66.00
8945;DHT22;4507;40.232;29.132;2023-04-09T13:11:03;20.80;65.80
8945;DHT22;4507;40.232;29.132;2023-04-09T13:13:33;20.50;65.90
8945;DHT22;4507;40.232;29.132;2023-04-09T13:16:02;20.30;66.10
8945;DHT22;4507;40.232;29.132;2023-04-09T13:18:31;20.20;66.30
8945;DHT22;4507;40.232;29.132;2023-04-09T13:21:00;19.90;66.80
8945;DHT22;4507;40.232;29.132;2023-04-09T13:23:29;19.70;67.60
8945;DHT22;4507;40.232;29.132;2023-04-09T13:25:58;19.60;68.20
8945;DHT22;4507;40.232;29.132;2023-04-09T13:28:29;19.50;68.80
8945;DHT22;4507;40.232;29.132;2023-04-09T13:30:58;19.40;69.20
8945;DHT22;4507;40.232;29.132;2023-04-09T13:33:27;19.30;70.10
8945;DHT22;4507;40.232;29.132;2023-04-09T13:35:56;19.30;69.90
8945;DHT22;4507;40.232;29.132;2023-04-09T13:38:25;19.20;69.80
8945;DHT22;4507;40.232;29.132;2023-04-09T13:40:54;19.20;69.80
8945;DHT22;4507;40.232;29.132;2023-04-09T13:43:23;19.10;69.70
8945;DHT22;4507;40.232;29.132;2023-04-09T13:45:57;19.00;69.90
8945;DHT22;4507;40.232;29.132;2023-04-09T13:48:26;18.90;70.00
8945;DHT22;4507;40.232;29.132;2023-04-09T13:50:56;18.80;70.00
8945;DHT22;4507;40.232;29.132;2023-04-09T13:53:25;18.70;70.30
8945;DHT22;4507;40.232;29.132;2023-04-09T13:55:54;18.60;70.70
8945;DHT22;4507;40.232;29.132;2023-04-09T13:58:24;18.50;71.00
8945;DHT22;4507;40.232;29.132;2023-04-09T14:00:53;18.40;71.30
8945;DHT22;4507;40.232;29.132;2023-04-09T14:03:24;18.30;71.60
8945;DHT22;4507;40.232;29.132;2023-04-09T14:05:53;18.20;72.00
8945;DHT22;4507;40.232;29.132;2023-04-09T14:08:22;18.10;72.20
8945;DHT22;4507;40.232;29.132;2023-04-09T14:10:51;18.00;72.50
8945;DHT22;4507;40.232;29.132;2023-04-09T14:13:20;17.90;72.60
8945;DHT22;4507;40.232;29.132;2023-04-09T14:15:49;17.80;72.80
8945;DHT22;4507;40.232;29.132;2023-04-09T14:18:18;17.80;73.20
8945;DHT22;4507;40.232;29.132;2023-04-09T14:20:48;17.70;73.70
8945;DHT22;4507;40.232;29.132;2023-04-09T14:23:17;17.60;74.00
8945;DHT22;4507;40.232;29.132;2023-04-09T14:25:47;17.60;74.30
8945;DHT22;4507;40.232;29.132;2023-04-09T14:28:15;17.50;74.50
8945;DHT22;4507;40.232;29.132;2023-04-09T14:30:44;17.40;74.80
8945;DHT22;4507;40.232;29.132;2023-04-09T14:33:13;17.30;75.10
8945;DHT22;4507;40.232;29.132;2023-04-09T14:35:42;17.30;75.40
8945;DHT22;4507;40.232;29.132;2023-04-09T14:38:13;17.20;75.70
8945;DHT22;4507;40.232;29.132;2023-04-09T14:40:43;17.20;76.40
8945;DHT22;4507;40.232;29.132;2023-04-09T14:43:12;17.20;76.60
8945;DHT22;4507;40.232;29.132;2023-04-09T14:45:41;17.10;76.60
8945;DHT22;4507;40.232;29.132;2023-04-09T14:48:10;17.10;76.80
8945;DHT22;4507;40.232;29.132;2023-04-09T14:50:39;17.00;76.90
8945;DHT22;4507;40.232;29.132;2023-04-09T14:53:09;16.90;77.10
8945;DHT22;4507;40.232;29.132;2023-04-09T14:55:40;16.90;77.50
8945;DHT22;4507;40.232;29.132;2023-04-09T14:58:09;16.80;77.70
8945;DHT22;4507;40.232;29.132;2023-04-09T15:00:38;16.80;77.90
8945;DHT22;4507;40.232;29.132;2023-04-09T15:03:07;16.70;78.20
8945;DHT22;4507;40.232;29.132;2023-04-09T15:05:37;16.70;79.20
8945;DHT22;4507;40.232;29.132;2023-04-09T15:08:06;16.70;78.90
8945;DHT22;4507;40.232;29.132;2023-04-09T15:10:35;16.60;79.20
8945;DHT22;4507;40.232;29.132;2023-04-09T15:13:24;16.60;79.40
8945;DHT22;4507;40.232;29.132;2023-04-09T15:15:53;16.50;79.50
8945;DHT22;4507;40.232;29.132;2023-04-09T15:18:22;16.50;79.80
8945;DHT22;4507;40.232;29.132;2023-04-09T15:20:51;16.40;80.10
8945;DHT22;4507;40.232;29.132;2023-04-09T15:23:20;16.40;80.50
8945;DHT22;4507;40.232;29.132;2023-04-09T15:25:49;16.30;80.70
8945;DHT22;4507;40.232;29.132;2023-04-09T15:28:18;16.30;81.10
8945;DHT22;4507;40.232;29.132;2023-04-09T15:30:48;16.30;81.30
8945;DHT22;4507;40.232;29.132;2023-04-09T15:33:17;16.20;81.50
8945;DHT22;4507;40.232;29.132;2023-04-09T15:35:46;16.10;81.70
8945;DHT22;4507;40.232;29.132;2023-04-09T15:38:15;16.10;82.00
8945;DHT22;4507;40.232;29.132;2023-04-09T15:40:44;16.10;82.20
8945;DHT22;4507;40.232;29.132;2023-04-09T15:43:13;16.10;82.40
8945;DHT22;4507;40.232;29.132;2023-04-09T15:45:44;16.00;82.60
8945;DHT22;4507;40.232;29.132;2023-04-09T15:48:16;16.00;82.60
8945;DHT22;4507;40.232;29.132;2023-04-09T15:50:45;16.00;82.70
8945;DHT22;4507;40.232;29.132;2023-04-09T15:53:14;15.90;82.70
8945;DHT22;4507;40.232;29.132;2023-04-09T15:55:43;15.90;82.90
8945;DHT22;4507;40.232;29.132;2023-04-09T15:58:13;15.90;82.90
8945;DHT22;4507;40.232;29.132;2023-04-09T16:00:41;15.80;82.60
8945;DHT22;4507;40.232;29.132;2023-04-09T16:03:10;15.80;82.20
8945;DHT22;4507;40.232;29.132;2023-04-09T16:05:41;15.70;82.30
8945;DHT22;4507;40.232;29.132;2023-04-09T16:08:10;15.70;82.30
8945;DHT22;4507;40.232;29.132;2023-04-09T16:10:39;15.70;81.80
8945;DHT22;4507;40.232;29.132;2023-04-09T16:13:08;15.60;81.30
8945;DHT22;4507;40.232;29.132;2023-04-09T16:15:37;15.60;81.30
8945;DHT22;4507;40.232;29.132;2023-04-09T16:18:06;15.50;80.90
8945;DHT22;4507;40.232;29.132;2023-04-09T16:20:37;15.50;80.70